createdAt,value
2023-05-14T00:01:28.559Z,18.73
2023-05-14T00:03:55.174Z,18.43
2023-05-14T00:06:22.106Z,18.43
2023-05-14T00:08:48.675Z,18.49
2023-05-14T00:11:16.221Z,18.17
2023-05-14T00:13:42.811Z,18.44
2023-05-14T00:16:09.729Z,18.32
2023-05-14T00:18:36.319Z,18.09
2023-05-14T00:21:03.145Z,18.44
2023-05-14T00:23:30.048Z,18.39
2023-05-14T00:25:56.752Z,18.26
2023-05-14T00:28:23.383Z,18.35
2023-05-14T00:30:50.252Z,17.82
2023-05-14T00:33:16.808Z,18.10
2023-05-14T00:35:43.530Z,17.93
2023-05-14T00:38:16.786Z,17.95
2023-05-14T00:40:45.809Z,17.96
2023-05-14T00:43:12.479Z,18.11
2023-05-14T00:45:39.203Z,18.00
2023-05-14T00:48:06.163Z,17.83
2023-05-14T00:50:34.584Z,17.53
2023-05-14T00:53:01.501Z,17.75
2023-05-14T00:55:30.445Z,17.79
2023-05-14T00:57:58.902Z,17.85
2023-05-14T01:00:26.066Z,17.81
2023-05-14T01:02:53.055Z,17.52
2023-05-14T01:05:20.225Z,17.54
2023-05-14T01:08:05.434Z,17.71
2023-05-14T01:11:06.399Z,17.58
2023-05-14T01:13:56.374Z,17.56
2023-05-14T01:16:27.879Z,17.65
2023-05-14T01:18:56.571Z,17.57
2023-05-14T01:21:44.609Z,17.28
2023-05-14T01:24:11.171Z,17.46
2023-05-14T01:26:37.963Z,17.44
2023-05-14T01:29:26.749Z,17.14
2023-05-14T01:31:56.645Z,17.41
2023-05-14T01:34:26.357Z,17.23
2023-05-14T01:36:53.747Z,17.26
2023-05-14T01:39:20.568Z,17.17
2023-05-14T01:41:48.219Z,17.10
2023-05-14T01:44:15.180Z,17.18
2023-05-14T01:46:41.790Z,17.31
2023-05-14T01:49:08.665Z,17.28
2023-05-14T01:51:35.710Z,17.07
2023-05-14T01:54:02.437Z,16.83
2023-05-14T01:56:29.249Z,16.93
2023-05-14T01:58:57.220Z,17.00
2023-05-14T02:01:25.970Z,16.95
2023-05-14T02:03:52.536Z,16.84
2023-05-14T02:06:19.483Z,16.70
2023-05-14T02:08:45.994Z,16.79
2023-05-14T02:11:12.809Z,16.87
2023-05-14T02:13:39.310Z,16.75
2023-05-14T02:16:06.230Z,16.84
2023-05-14T02:18:32.819Z,16.92
2023-05-14T02:20:59.674Z,16.80
2023-05-14T02:23:37.907Z,16.73
2023-05-14T02:26:09.715Z,16.66
2023-05-14T02:28:36.314Z,16.54
2023-05-14T02:31:03.231Z,16.63
2023-05-14T02:33:30.093Z,16.80
2023-05-14T02:35:56.952Z,16.69
2023-05-14T02:38:23.674Z,16.70
2023-05-14T02:40:50.232Z,16.76
2023-05-14T02:43:16.884Z,16.45
2023-05-14T02:45:43.761Z,16.71
2023-05-14T02:48:10.610Z,16.54
2023-05-14T02:50:37.284Z,16.51
2023-05-14T02:53:04.188Z,16.68
2023-05-14T02:55:31.102Z,16.56
2023-05-14T02:57:58.054Z,16.46
2023-05-14T03:00:25.137Z,16.61
2023-05-14T03:02:52.286Z,16.39
2023-05-14T03:05:20.093Z,16.52
2023-05-14T03:07:46.636Z,16.39
2023-05-14T03:10:13.541Z,16.40
2023-05-14T03:12:40.442Z,16.40
2023-05-14T03:15:07.538Z,16.38
2023-05-14T03:17:34.361Z,16.24
2023-05-14T03:20:01.118Z,16.17
2023-05-14T03:22:27.775Z,16.16
2023-05-14T03:24:54.585Z,16.24
2023-05-14T03:27:21.362Z,16.38
2023-05-14T03:29:47.962Z,16.09
2023-05-14T03:32:15.004Z,16.28
2023-05-14T03:34:41.845Z,16.20
2023-05-14T03:37:08.436Z,16.18
2023-05-14T03:39:35.120Z,16.09
2023-05-14T03:42:05.031Z,15.98
2023-05-14T03:44:31.921Z,15.99
2023-05-14T03:46:58.564Z,16.07
2023-05-14T03:49:25.433Z,15.89
2023-05-14T03:51:52.019Z,16.04
2023-05-14T03:54:18.765Z,15.91
2023-05-14T03:56:45.994Z,16.15
2023-05-14T03:59:13.240Z,15.77
2023-05-14T04:01:39.932Z,15.85
2023-05-14T04:04:06.761Z,15.93
2023-05-14T04:06:33.895Z,15.94
2023-05-14T04:09:01.980Z,15.86
2023-05-14T04:11:28.554Z,15.99
2023-05-14T04:13:55.711Z,16.09
2023-05-14T04:16:22.607Z,16.08
2023-05-14T04:18:49.322Z,16.18
2023-05-14T04:21:16.156Z,15.96
2023-05-14T04:23:42.966Z,16.10
2023-05-14T04:26:10.044Z,15.91
2023-05-14T04:28:36.572Z,16.21
2023-05-14T04:31:03.807Z,16.17
2023-05-14T04:33:30.576Z,16.18
2023-05-14T04:35:57.322Z,16.25
2023-05-14T04:38:24.115Z,16.17
2023-05-14T04:40:50.924Z,16.31
2023-05-14T04:43:37.007Z,16.28
2023-05-14T04:46:03.891Z,16.64
2023-05-14T04:48:30.534Z,16.13
2023-05-14T04:50:57.169Z,16.63
2023-05-14T04:53:24.242Z,16.87
2023-05-14T04:55:51.819Z,17.36
2023-05-14T04:58:18.381Z,18.00
2023-05-14T05:00:45.416Z,17.64
2023-05-14T05:03:12.636Z,17.76
2023-05-14T05:05:39.389Z,18.02
2023-05-14T05:08:06.105Z,17.96
2023-05-14T05:10:32.797Z,17.81
2023-05-14T05:12:59.409Z,18.01
2023-05-14T05:15:26.599Z,17.86
2023-05-14T05:17:53.524Z,18.41
2023-05-14T05:20:20.495Z,18.41
2023-05-14T05:22:47.293Z,18.05
2023-05-14T05:25:14.073Z,18.12
2023-05-14T05:27:40.689Z,18.42
2023-05-14T05:30:09.143Z,18.90
2023-05-14T05:32:36.144Z,19.45
2023-05-14T05:35:03.602Z,19.91
2023-05-14T05:37:30.882Z,20.15
2023-05-14T05:39:57.484Z,19.58
2023-05-14T05:42:24.500Z,19.51
2023-05-14T05:44:51.098Z,18.70
2023-05-14T05:47:17.692Z,18.01
2023-05-14T05:49:44.417Z,18.12
2023-05-14T05:52:11.055Z,19.01
2023-05-14T05:54:39.957Z,18.82
2023-05-14T05:57:06.764Z,18.66
2023-05-14T05:59:33.502Z,18.95
2023-05-14T06:02:00.242Z,18.43
2023-05-14T06:04:27.098Z,17.85
2023-05-14T06:06:54.055Z,17.97
2023-05-14T06:09:21.135Z,18.07
2023-05-14T06:11:47.699Z,18.20
2023-05-14T06:14:14.260Z,18.20
2023-05-14T06:16:40.722Z,19.54
2023-05-14T06:19:08.701Z,20.70
2023-05-14T06:21:35.516Z,20.74
2023-05-14T06:24:02.260Z,20.76
2023-05-14T06:26:28.955Z,21.19
2023-05-14T06:28:55.557Z,22.27
2023-05-14T06:31:22.256Z,22.52
2023-05-14T06:33:48.916Z,21.59
2023-05-14T06:36:15.636Z,20.60
2023-05-14T06:38:42.425Z,20.10
2023-05-14T06:41:08.959Z,20.14
2023-05-14T06:43:36.744Z,20.78
2023-05-14T06:46:03.538Z,20.74
2023-05-14T06:48:30.940Z,21.39
2023-05-14T06:50:57.828Z,22.39
2023-05-14T06:53:24.504Z,21.99
2023-05-14T06:55:51.217Z,21.61
2023-05-14T06:58:17.834Z,21.27
2023-05-14T07:00:44.465Z,21.26
2023-05-14T07:03:11.123Z,20.90
2023-05-14T07:05:37.776Z,21.74
2023-05-14T07:08:07.525Z,22.62
2023-05-14T07:10:34.317Z,23.05
2023-05-14T07:13:00.934Z,23.26
2023-05-14T07:15:27.738Z,23.75
2023-05-14T07:17:54.374Z,24.11
2023-05-14T07:20:23.950Z,23.70
2023-05-14T07:22:52.712Z,22.85
2023-05-14T07:25:19.360Z,22.59
2023-05-14T07:27:46.057Z,23.45
2023-05-14T07:30:12.873Z,24.03
2023-05-14T07:32:39.799Z,24.65
2023-05-14T07:35:07.089Z,25.12
2023-05-14T07:37:34.248Z,24.12
2023-05-14T07:40:01.011Z,22.72
2023-05-14T07:42:35.732Z,22.30
2023-05-14T07:45:04.106Z,23.00
2023-05-14T07:47:30.828Z,24.11
2023-05-14T07:49:57.814Z,25.62
2023-05-14T07:52:24.730Z,25.81
2023-05-14T07:54:52.378Z,26.10
2023-05-14T07:57:19.801Z,25.56
2023-05-14T07:59:48.045Z,25.59
2023-05-14T08:02:16.295Z,26.52
2023-05-14T08:04:43.073Z,26.17
2023-05-14T08:07:09.644Z,26.31
2023-05-14T08:09:36.292Z,26.38
2023-05-14T08:12:03.119Z,25.57
2023-05-14T08:14:29.726Z,24.05
2023-05-14T08:16:56.305Z,24.08
2023-05-14T08:19:24.964Z,24.08
2023-05-14T08:21:51.669Z,23.32
2023-05-14T08:24:19.007Z,22.59
2023-05-14T08:26:45.851Z,22.54
2023-05-14T08:29:14.652Z,23.06
2023-05-14T08:31:42.904Z,23.43
2023-05-14T08:34:09.501Z,23.63
2023-05-14T08:36:36.907Z,23.97
2023-05-14T08:39:03.553Z,23.71
2023-05-14T08:41:30.339Z,23.28
2023-05-14T08:44:06.946Z,22.87
2023-05-14T08:46:34.178Z,23.34
2023-05-14T08:49:24.206Z,24.01
2023-05-14T08:51:51.102Z,25.35
2023-05-14T08:54:18.241Z,25.15
2023-05-14T08:56:49.370Z,25.43
2023-05-14T08:59:18.322Z,26.26
2023-05-14T09:01:48.074Z,26.61
2023-05-14T09:04:21.237Z,26.24
2023-05-14T09:06:50.998Z,25.86
2023-05-14T09:09:18.350Z,24.83
2023-05-14T09:11:53.402Z,24.78
2023-05-14T09:14:22.457Z,24.61
2023-05-14T09:16:51.115Z,24.09
2023-05-14T09:19:19.346Z,24.12
2023-05-14T09:21:47.547Z,23.91
2023-05-14T09:24:22.830Z,23.75
2023-05-14T09:26:54.227Z,23.80
2023-05-14T09:29:20.954Z,23.73
2023-05-14T09:31:50.832Z,23.54
2023-05-14T09:34:43.751Z,23.79
2023-05-14T09:37:10.476Z,23.65
2023-05-14T09:39:40.483Z,23.93
2023-05-14T09:42:07.453Z,24.32
2023-05-14T09:44:36.300Z,24.47
2023-05-14T09:47:04.255Z,24.40
2023-05-14T09:49:30.981Z,24.24
2023-05-14T09:51:58.058Z,24.32
2023-05-14T09:54:26.309Z,24.35
2023-05-14T09:56:55.492Z,24.55
2023-05-14T09:59:22.613Z,24.96
2023-05-14T10:01:50.098Z,24.55
2023-05-14T10:04:17.547Z,24.82
2023-05-14T10:06:51.368Z,24.99
2023-05-14T10:09:23.098Z,24.22
2023-05-14T10:11:54.230Z,24.52
2023-05-14T10:14:24.486Z,24.94
2023-05-14T10:16:55.649Z,24.77
2023-05-14T10:19:25.222Z,24.72
2023-05-14T10:24:39.072Z,24.95
2023-05-14T10:27:06.816Z,25.08
2023-05-14T10:29:38.142Z,24.72
2023-05-14T10:32:09.819Z,24.63
2023-05-14T10:34:46.457Z,24.38
2023-05-14T10:37:19.504Z,24.69
2023-05-14T10:39:48.140Z,24.72
2023-05-14T10:42:19.175Z,25.02
2023-05-14T10:44:58.660Z,24.82
2023-05-14T10:47:32.633Z,25.26
2023-05-14T10:50:02.548Z,25.46
2023-05-14T10:52:29.935Z,25.36
2023-05-14T10:55:07.714Z,25.54
2023-05-14T10:57:37.803Z,25.36
2023-05-14T11:00:07.752Z,25.49
2023-05-14T11:02:44.513Z,25.64
2023-05-14T11:05:14.402Z,25.82
2023-05-14T11:07:45.515Z,26.17
2023-05-14T11:10:17.024Z,25.81
2023-05-14T11:12:48.559Z,25.64
2023-05-14T11:15:18.193Z,25.28
2023-05-14T11:17:46.937Z,25.80
2023-05-14T11:20:14.907Z,26.22
2023-05-14T11:22:43.369Z,26.01
2023-05-14T11:25:11.233Z,26.09
2023-05-14T11:27:39.041Z,26.35
2023-05-14T11:30:12.130Z,26.10
2023-05-14T11:32:39.122Z,26.25
2023-05-14T11:35:05.948Z,26.08
2023-05-14T11:37:32.758Z,26.22
2023-05-14T11:40:00.953Z,26.23
2023-05-14T11:42:27.938Z,26.44
2023-05-14T11:44:54.563Z,26.24
2023-05-14T11:47:22.295Z,26.56
2023-05-14T11:49:49.569Z,26.85
2023-05-14T11:52:19.712Z,26.26
2023-05-14T11:54:47.402Z,26.75
2023-05-14T11:57:21.473Z,26.97
2023-05-14T11:59:49.601Z,26.76
2023-05-14T12:02:18.653Z,26.83
2023-05-14T12:04:52.279Z,26.85
2023-05-14T12:07:19.579Z,27.39
2023-05-14T12:09:51.456Z,27.31
2023-05-14T12:12:20.760Z,27.14
2023-05-14T12:14:48.295Z,26.90
2023-05-14T12:17:22.790Z,26.92
2023-05-14T12:19:51.580Z,26.88
2023-05-14T12:22:22.786Z,27.37
2023-05-14T12:24:58.284Z,27.13
2023-05-14T12:27:27.236Z,27.04
2023-05-14T12:30:19.805Z,26.72
2023-05-14T12:32:52.760Z,26.74
2023-05-14T12:35:21.359Z,27.41
2023-05-14T12:37:48.088Z,27.62
2023-05-14T12:40:14.754Z,28.01
2023-05-14T12:42:41.509Z,27.77
2023-05-14T12:45:21.380Z,27.81
2023-05-14T12:47:48.256Z,28.01
2023-05-14T12:50:14.858Z,27.68
2023-05-14T12:52:41.475Z,27.92
2023-05-14T12:55:09.355Z,27.73
2023-05-14T12:57:37.223Z,28.25
2023-05-14T13:00:08.113Z,28.00
2023-05-14T13:02:43.093Z,28.17
2023-05-14T13:05:11.147Z,27.68
2023-05-14T13:07:38.333Z,27.70
2023-05-14T13:10:05.747Z,27.69
2023-05-14T13:12:32.710Z,27.45
2023-05-14T13:14:59.592Z,27.61
2023-05-14T13:17:26.392Z,28.14
2023-05-14T13:19:53.025Z,28.07
2023-05-14T13:22:19.599Z,28.02
2023-05-14T13:24:46.452Z,27.79
2023-05-14T13:27:13.033Z,27.45
2023-05-14T13:29:39.685Z,27.38
2023-05-14T13:32:06.552Z,27.52
2023-05-14T13:34:33.192Z,27.73
2023-05-14T13:36:59.771Z,27.62
2023-05-14T13:39:27.263Z,27.70
2023-05-14T13:41:58.680Z,27.78
2023-05-14T13:44:25.426Z,27.76
2023-05-14T13:46:52.510Z,27.77
2023-05-14T13:49:19.169Z,28.40
2023-05-14T13:51:45.781Z,28.04
2023-05-14T13:54:12.414Z,28.29
2023-05-14T13:56:39.047Z,28.14
2023-05-14T13:59:06.373Z,27.32
2023-05-14T14:01:33.094Z,27.61
2023-05-14T14:04:00.290Z,28.09
2023-05-14T14:06:29.888Z,28.20
2023-05-14T14:08:56.535Z,27.97
2023-05-14T14:11:25.419Z,27.79
2023-05-14T14:13:52.269Z,27.85
2023-05-14T14:16:19.018Z,27.92
2023-05-14T14:18:46.030Z,27.57
2023-05-14T14:21:12.851Z,27.96
2023-05-14T14:23:39.554Z,28.19
2023-05-14T14:26:06.191Z,27.91
2023-05-14T14:28:33.076Z,27.88
2023-05-14T14:30:59.979Z,28.15
2023-05-14T14:33:28.928Z,28.16
2023-05-14T14:35:56.094Z,28.12
2023-05-14T14:38:24.600Z,27.83
2023-05-14T14:40:51.410Z,28.11
2023-05-14T14:43:18.335Z,28.20
2023-05-14T14:45:47.491Z,28.12
2023-05-14T14:48:25.254Z,27.95
2023-05-14T14:50:52.720Z,27.98
2023-05-14T14:53:20.642Z,27.88
2023-05-14T14:55:48.442Z,28.20
2023-05-14T14:58:15.186Z,28.19
2023-05-14T15:00:41.948Z,27.85
2023-05-14T15:03:11.725Z,27.89
2023-05-14T15:05:38.421Z,28.08
2023-05-14T15:08:05.243Z,28.40
2023-05-14T15:10:32.825Z,28.22
2023-05-14T15:13:00.076Z,27.42
2023-05-14T15:15:26.740Z,27.27
2023-05-14T15:17:53.398Z,27.75
2023-05-14T15:20:20.093Z,28.29
2023-05-14T15:22:46.777Z,28.12
2023-05-14T15:25:13.625Z,27.86
2023-05-14T15:27:40.592Z,28.13
2023-05-14T15:30:08.075Z,27.55
2023-05-14T15:32:34.650Z,27.67
2023-05-14T15:35:01.368Z,27.73
2023-05-14T15:37:27.919Z,27.63
2023-05-14T15:39:54.504Z,27.97
2023-05-14T15:42:21.244Z,27.96
2023-05-14T15:44:47.964Z,27.87
2023-05-14T15:47:17.228Z,27.67
2023-05-14T15:49:43.945Z,27.70
2023-05-14T15:52:10.694Z,27.66
2023-05-14T15:54:37.487Z,27.40
2023-05-14T15:57:04.540Z,27.64
2023-05-14T15:59:31.117Z,28.01
2023-05-14T16:01:57.644Z,27.63
2023-05-14T16:04:24.188Z,27.49
2023-05-14T16:06:51.202Z,27.29
2023-05-14T16:09:17.835Z,27.63
2023-05-14T16:11:44.412Z,27.28
2023-05-14T16:14:11.689Z,27.15
2023-05-14T16:16:38.417Z,26.73
2023-05-14T16:19:05.245Z,26.85
2023-05-14T16:21:32.821Z,26.99
2023-05-14T16:23:59.418Z,26.70
2023-05-14T16:26:26.438Z,26.47
2023-05-14T16:28:56.284Z,26.19
2023-05-14T16:31:23.583Z,25.80
2023-05-14T16:33:50.217Z,25.80
2023-05-14T16:36:16.788Z,25.53
2023-05-14T16:38:57.147Z,25.56
2023-05-14T16:41:32.664Z,25.58
2023-05-14T16:44:01.732Z,25.87
2023-05-14T16:46:29.443Z,25.57
2023-05-14T16:48:56.533Z,25.52
2023-05-14T16:51:23.162Z,25.20
2023-05-14T16:53:49.817Z,25.24
2023-05-14T16:56:16.885Z,25.31
2023-05-14T16:58:43.486Z,25.01
2023-05-14T17:01:10.310Z,25.04
2023-05-14T17:03:36.923Z,24.97
2023-05-14T17:06:04.634Z,24.84
2023-05-14T17:08:33.558Z,24.28
2023-05-14T17:11:00.439Z,24.26
2023-05-14T17:13:27.005Z,23.91
2023-05-14T17:15:53.693Z,24.08
2023-05-14T17:18:20.473Z,24.29
2023-05-14T17:20:47.100Z,23.98
2023-05-14T17:23:13.708Z,23.67
2023-05-14T17:25:40.466Z,23.00
2023-05-14T17:28:07.150Z,23.42
2023-05-14T17:30:33.887Z,22.88
2023-05-14T17:33:00.521Z,22.91
2023-05-14T17:35:27.614Z,22.91
2023-05-14T17:37:54.394Z,22.76
2023-05-14T17:40:21.064Z,22.65
2023-05-14T17:42:47.641Z,22.56
2023-05-14T17:45:15.478Z,22.46
2023-05-14T17:47:42.277Z,22.42
2023-05-14T17:50:09.276Z,22.54
2023-05-14T17:52:36.007Z,22.18
2023-05-14T17:55:02.918Z,22.24
2023-05-14T17:57:31.563Z,22.01
2023-05-14T17:59:58.202Z,22.02
2023-05-14T18:02:24.811Z,22.03
2023-05-14T18:04:52.026Z,21.80
2023-05-14T18:07:19.193Z,21.98
2023-05-14T18:09:45.851Z,21.75
2023-05-14T18:12:12.423Z,21.85
2023-05-14T18:14:39.341Z,21.76
2023-05-14T18:17:06.411Z,21.37
2023-05-14T18:19:33.480Z,21.37
2023-05-14T18:22:00.454Z,21.26
2023-05-14T18:24:27.127Z,20.63
2023-05-14T18:26:54.656Z,20.68
2023-05-14T18:29:21.401Z,21.00
2023-05-14T18:31:48.000Z,20.75
2023-05-14T18:34:14.493Z,20.38
2023-05-14T18:36:41.157Z,19.91
2023-05-14T18:39:08.034Z,20.01
2023-05-14T18:41:34.658Z,19.84
2023-05-14T18:44:02.324Z,19.85
2023-05-14T18:46:29.201Z,19.91
2023-05-14T18:48:56.370Z,19.80
2023-05-14T18:51:23.054Z,19.73
2023-05-14T18:53:49.702Z,19.54
2023-05-14T18:56:16.357Z,19.59
2023-05-14T18:58:42.978Z,19.29
2023-05-14T19:01:09.623Z,19.26
2023-05-14T19:03:36.596Z,19.35
2023-05-14T19:06:06.138Z,19.26
2023-05-14T19:08:32.672Z,19.35
2023-05-14T19:11:02.037Z,19.15
2023-05-14T19:13:30.112Z,19.20
2023-05-14T19:15:56.794Z,19.45
2023-05-14T19:18:23.528Z,19.34
2023-05-14T19:20:50.266Z,19.35
2023-05-14T19:23:16.866Z,19.17
2023-05-14T19:25:43.583Z,19.07
2023-05-14T19:28:10.376Z,19.21
2023-05-14T19:30:36.993Z,18.86
2023-05-14T19:33:04.378Z,18.95
2023-05-14T19:35:31.553Z,19.00
2023-05-14T19:38:00.813Z,18.85
2023-05-14T19:40:40.728Z,18.77
2023-05-14T19:43:08.107Z,18.45
2023-05-14T19:45:39.240Z,18.53
2023-05-14T19:48:06.633Z,18.64
2023-05-14T19:50:34.021Z,18.68
2023-05-14T19:53:01.164Z,18.78
2023-05-14T19:55:27.790Z,18.65
2023-05-14T19:57:54.463Z,18.62
2023-05-14T20:00:22.556Z,18.61
2023-05-14T20:02:49.615Z,18.58
2023-05-14T20:05:16.594Z,18.40
2023-05-14T20:07:43.852Z,18.22
2023-05-14T20:10:10.975Z,18.35
2023-05-14T20:12:37.670Z,18.15
2023-05-14T20:15:04.892Z,18.51
2023-05-14T20:17:31.627Z,18.62
2023-05-14T20:19:58.197Z,18.46
2023-05-14T20:22:25.024Z,18.48
2023-05-14T20:24:52.518Z,18.47
2023-05-14T20:27:19.181Z,18.33
2023-05-14T20:29:46.696Z,17.97
2023-05-14T20:32:13.385Z,18.07
2023-05-14T20:34:39.891Z,18.08
2023-05-14T20:37:07.964Z,18.05
2023-05-14T20:39:34.731Z,17.97
2023-05-14T20:42:01.576Z,17.97
2023-05-14T20:44:28.049Z,18.09
2023-05-14T20:46:54.736Z,18.09
2023-05-14T20:49:21.326Z,17.76
2023-05-14T20:51:48.505Z,17.77
2023-05-14T20:54:15.492Z,17.94
2023-05-14T20:56:42.396Z,17.75
2023-05-14T20:59:09.131Z,17.81
2023-05-14T21:01:35.761Z,17.78
2023-05-14T21:04:02.505Z,17.68
2023-05-14T21:06:29.221Z,17.81
2023-05-14T21:08:55.833Z,17.82
2023-05-14T21:11:23.104Z,17.58
2023-05-14T21:13:49.666Z,17.39
2023-05-14T21:16:16.404Z,17.71
2023-05-14T21:18:43.209Z,17.66
2023-05-14T21:21:09.894Z,17.56
2023-05-14T21:23:36.521Z,17.49
2023-05-14T21:26:03.174Z,17.42
2023-05-14T21:28:30.221Z,17.36
2023-05-14T21:30:56.942Z,17.46
2023-05-14T21:33:23.971Z,17.56
2023-05-14T21:35:50.597Z,17.44
2023-05-14T21:38:17.489Z,17.47
2023-05-14T21:40:44.266Z,17.45
2023-05-14T21:43:10.861Z,17.21
2023-05-14T21:45:37.549Z,17.32
2023-05-14T21:48:04.377Z,17.26
2023-05-14T21:50:31.069Z,17.20
2023-05-14T21:52:57.711Z,17.34
2023-05-14T21:55:24.688Z,17.21
2023-05-14T21:57:51.899Z,17.04
2023-05-14T22:00:23.348Z,17.07
2023-05-14T22:02:51.857Z,17.06
2023-05-14T22:05:19.190Z,17.22
2023-05-14T22:07:46.110Z,17.11
2023-05-14T22:10:14.203Z,16.93
2023-05-14T22:12:41.691Z,16.85
2023-05-14T22:15:12.361Z,17.00
2023-05-14T22:17:39.214Z,16.75
2023-05-14T22:20:07.729Z,17.00
2023-05-14T22:22:34.316Z,16.87
2023-05-14T22:25:01.016Z,16.80
2023-05-14T22:27:27.840Z,16.84
2023-05-14T22:29:55.197Z,16.80
2023-05-14T22:32:21.898Z,16.72
2023-05-14T22:34:48.637Z,16.72
2023-05-14T22:37:15.619Z,16.80
2023-05-14T22:39:42.580Z,16.62
2023-05-14T22:42:09.325Z,16.78
2023-05-14T22:44:37.010Z,16.69
2023-05-14T22:47:07.316Z,16.52
2023-05-14T22:49:33.966Z,16.85
2023-05-14T22:52:00.835Z,16.80
2023-05-14T22:54:27.382Z,16.80
2023-05-14T22:56:54.306Z,16.78
2023-05-14T22:59:22.888Z,16.79
2023-05-14T23:01:50.529Z,16.71
2023-05-14T23:04:17.371Z,16.88
2023-05-14T23:06:44.469Z,16.93
2023-05-14T23:09:11.029Z,17.02
2023-05-14T23:11:37.918Z,17.04
2023-05-14T23:14:04.407Z,16.94
2023-05-14T23:16:31.951Z,16.89
2023-05-14T23:18:58.732Z,16.89
2023-05-14T23:21:25.543Z,16.81
2023-05-14T23:23:52.099Z,16.62
2023-05-14T23:26:18.692Z,16.76
2023-05-14T23:28:47.210Z,16.72
2023-05-14T23:31:14.032Z,16.82
2023-05-14T23:33:40.715Z,16.94
2023-05-14T23:36:07.995Z,16.89
2023-05-14T23:38:34.717Z,16.78
2023-05-14T23:41:01.344Z,16.82
2023-05-14T23:43:28.121Z,16.61
2023-05-14T23:45:54.887Z,16.44
2023-05-14T23:48:21.437Z,16.73
2023-05-14T23:50:48.264Z,16.37
2023-05-14T23:53:15.038Z,16.68
2023-05-14T23:55:41.713Z,16.73
2023-05-14T23:58:08.432Z,16.63
